sensor_id;sensor_type;location;lat;lon;timestamp;pressure;altitude;pressure_sealevel;temperature;humidity
70133;BME280;57495;49.922;7.966;2022-08-03T00:01:56;99951.66;;;21.87;52.31
70133;BME280;57495;49.922;7.966;2022-08-03T00:03:59;99950.59;;;21.42;53.43
70133;BME280;57495;49.922;7.966;2022-08-03T00:06:01;99955.28;;;21.22;53.96
70133;BME280;57495;49.922;7.966;2022-08-03T00:08:02;99946.97;;;21.03;54.41
70133;BME280;57495;49.922;7.966;2022-08-03T00:10:04;99950.91;;;21.08;54.25
70133;BME280;57495;49.922;7.966;2022-08-03T00:12:06;99956.09;;;21.29;54.08
70133;BME280;57495;49.922;7.966;2022-08-03T00:14:08;99960.44;;;21.43;53.36
70133;BME280;57495;49.922;7.966;2022-08-03T00:16:10;99952.66;;;21.54;53.02
70133;BME280;57495;49.922;7.966;2022-08-03T00:18:12;99953.25;;;21.69;52.43
70133;BME280;57495;49.922;7.966;2022-08-03T00:20:15;99957.19;;;21.73;52.52
70133;BME280;57495;49.922;7.966;2022-08-03T00:22:16;99953.00;;;21.71;52.73
70133;BME280;57495;49.922;7.966;2022-08-03T00:24:18;99950.69;;;21.74;52.75
70133;BME280;57495;49.922;7.966;2022-08-03T00:26:20;99958.41;;;21.77;52.55
70133;BME280;57495;49.922;7.966;2022-08-03T00:28:22;99953.59;;;21.79;52.72
70133;BME280;57495;49.922;7.966;2022-08-03T00:30:23;99958.81;;;21.81;52.42
70133;BME280;57495;49.922;7.966;2022-08-03T00:32:25;99956.31;;;21.79;52.71
70133;BME280;57495;49.922;7.966;2022-08-03T00:34:26;99948.81;;;21.75;52.57
70133;BME280;57495;49.922;7.966;2022-08-03T00:36:30;99950.34;;;21.64;52.89
70133;BME280;57495;49.922;7.966;2022-08-03T00:38:31;99950.53;;;21.69;52.68
70133;BME280;57495;49.922;7.966;2022-08-03T00:40:33;99950.06;;;21.72;52.76
70133;BME280;57495;49.922;7.966;2022-08-03T00:42:45;99942.56;;;21.68;52.92
70133;BME280;57495;49.922;7.966;2022-08-03T00:44:46;99939.63;;;21.69;52.75
70133;BME280;57495;49.922;7.966;2022-08-03T00:46:48;99936.72;;;21.64;52.78
70133;BME280;57495;49.922;7.966;2022-08-03T00:48:49;99945.22;;;21.74;52.61
70133;BME280;57495;49.922;7.966;2022-08-03T00:50:52;99944.81;;;21.77;52.45
70133;BME280;57495;49.922;7.966;2022-08-03T00:52:58;99942.91;;;21.78;52.56
70133;BME280;57495;49.922;7.966;2022-08-03T00:54:59;99948.41;;;21.71;53.18
70133;BME280;57495;49.922;7.966;2022-08-03T00:57:01;99945.09;;;21.62;53.48
70133;BME280;57495;49.922;7.966;2022-08-03T00:59:03;99939.69;;;21.56;54.08
70133;BME280;57495;49.922;7.966;2022-08-03T01:01:04;99944.06;;;20.92;55.68
70133;BME280;57495;49.922;7.966;2022-08-03T01:03:07;99939.06;;;20.95;55.59
70133;BME280;57495;49.922;7.966;2022-08-03T01:05:09;99942.13;;;21.12;55.45
70133;BME280;57495;49.922;7.966;2022-08-03T01:07:16;99930.78;;;21.22;55.02
70133;BME280;57495;49.922;7.966;2022-08-03T01:09:29;99940.41;;;21.24;55.01
70133;BME280;57495;49.922;7.966;2022-08-03T01:11:41;99931.00;;;21.20;55.01
70133;BME280;57495;49.922;7.966;2022-08-03T01:13:50;99942.69;;;21.28;54.59
70133;BME280;57495;49.922;7.966;2022-08-03T01:15:58;99930.63;;;21.10;54.88
70133;BME280;57495;49.922;7.966;2022-08-03T01:18:08;99938.13;;;21.15;54.83
70133;BME280;57495;49.922;7.966;2022-08-03T01:20:13;99931.47;;;21.04;55.29
70133;BME280;57495;49.922;7.966;2022-08-03T01:22:44;99930.22;;;21.07;55.05
70133;BME280;57495;49.922;7.966;2022-08-03T01:24:57;99933.16;;;20.98;55.27
70133;BME280;57495;49.922;7.966;2022-08-03T01:27:06;99932.16;;;20.73;56.01
70133;BME280;57495;49.922;7.966;2022-08-03T01:29:30;99931.38;;;20.65;56.37
70133;BME280;57495;49.922;7.966;2022-08-03T01:31:36;99929.44;;;20.06;58.57
70133;BME280;57495;49.922;7.966;2022-08-03T01:33:41;99936.53;;;19.94;59.42
70133;BME280;57495;49.922;7.966;2022-08-03T01:35:46;99934.06;;;20.39;57.72
70133;BME280;57495;49.922;7.966;2022-08-03T01:37:50;99931.53;;;20.51;57.17
70133;BME280;57495;49.922;7.966;2022-08-03T01:39:55;99932.59;;;20.43;57.51
70133;BME280;57495;49.922;7.966;2022-08-03T01:42:00;99927.78;;;20.45;57.37
70133;BME280;57495;49.922;7.966;2022-08-03T01:44:08;99933.00;;;20.53;57.35
70133;BME280;57495;49.922;7.966;2022-08-03T01:46:13;99924.44;;;20.56;57.13
70133;BME280;57495;49.922;7.966;2022-08-03T01:48:16;99926.97;;;20.51;57.36
70133;BME280;57495;49.922;7.966;2022-08-03T01:50:20;99924.44;;;20.56;57.18
70133;BME280;57495;49.922;7.966;2022-08-03T01:52:23;99923.19;;;20.52;57.13
70133;BME280;57495;49.922;7.966;2022-08-03T01:54:26;99919.84;;;20.57;57.19
70133;BME280;57495;49.922;7.966;2022-08-03T01:56:29;99929.03;;;20.36;57.53
70133;BME280;57495;49.922;7.966;2022-08-03T01:58:34;99926.31;;;19.96;58.94
70133;BME280;57495;49.922;7.966;2022-08-03T02:00:37;99931.06;;;19.80;59.70
70133;BME280;57495;49.922;7.966;2022-08-03T02:02:41;99925.69;;;19.94;59.25
70133;BME280;57495;49.922;7.966;2022-08-03T02:04:46;99932.53;;;19.76;59.88
70133;BME280;57495;49.922;7.966;2022-08-03T02:06:48;99930.22;;;19.80;59.58
70133;BME280;57495;49.922;7.966;2022-08-03T02:08:51;99924.22;;;20.11;58.76
70133;BME280;57495;49.922;7.966;2022-08-03T02:10:56;99920.88;;;20.36;57.93
70133;BME280;57495;49.922;7.966;2022-08-03T02:13:00;99917.97;;;20.44;57.54
70133;BME280;57495;49.922;7.966;2022-08-03T02:15:03;99920.06;;;20.55;57.27
70133;BME280;57495;49.922;7.966;2022-08-03T02:17:06;99921.09;;;20.54;57.34
70133;BME280;57495;49.922;7.966;2022-08-03T02:19:10;99925.06;;;20.58;56.83
70133;BME280;57495;49.922;7.966;2022-08-03T02:21:12;99927.78;;;20.65;56.68
70133;BME280;57495;49.922;7.966;2022-08-03T02:23:15;99926.31;;;20.69;56.60
70133;BME280;57495;49.922;7.966;2022-08-03T02:25:17;99925.50;;;20.69;56.62
70133;BME280;57495;49.922;7.966;2022-08-03T02:27:20;99926.75;;;20.46;57.11
70133;BME280;57495;49.922;7.966;2022-08-03T02:29:25;99926.94;;;20.24;58.45
70133;BME280;57495;49.922;7.966;2022-08-03T02:31:28;99930.72;;;20.23;58.42
70133;BME280;57495;49.922;7.966;2022-08-03T02:33:33;99932.81;;;20.35;58.07
70133;BME280;57495;49.922;7.966;2022-08-03T02:35:38;99926.75;;;20.33;58.03
70133;BME280;57495;49.922;7.966;2022-08-03T02:37:42;99926.53;;;20.27;58.30
70133;BME280;57495;49.922;7.966;2022-08-03T02:39:45;99928.63;;;20.39;58.10
70133;BME280;57495;49.922;7.966;2022-08-03T02:41:50;99931.56;;;20.44;57.91
70133;BME280;57495;49.922;7.966;2022-08-03T02:43:53;99922.97;;;20.34;58.24
70133;BME280;57495;49.922;7.966;2022-08-03T02:45:56;99917.97;;;20.31;58.48
70133;BME280;57495;49.922;7.966;2022-08-03T02:48:02;99920.88;;;20.02;59.40
70133;BME280;57495;49.922;7.966;2022-08-03T02:50:05;99925.25;;;19.90;59.78
70133;BME280;57495;49.922;7.966;2022-08-03T02:52:11;99922.22;;;19.65;60.64
70133;BME280;57495;49.922;7.966;2022-08-03T02:54:14;99926.69;;;19.79;60.56
70133;BME280;57495;49.922;7.966;2022-08-03T02:56:18;99919.41;;;20.00;59.48
70133;BME280;57495;49.922;7.966;2022-08-03T02:58:22;99919.84;;;20.10;59.21
70133;BME280;57495;49.922;7.966;2022-08-03T03:00:25;99916.69;;;20.00;59.52
70133;BME280;57495;49.922;7.966;2022-08-03T03:02:27;99921.69;;;19.89;59.74
70133;BME280;57495;49.922;7.966;2022-08-03T03:04:29;99909.34;;;19.74;60.56
70133;BME280;57495;49.922;7.966;2022-08-03T03:06:31;99913.31;;;19.78;60.49
70133;BME280;57495;49.922;7.966;2022-08-03T03:08:35;99921.91;;;19.88;59.98
70133;BME280;57495;49.922;7.966;2022-08-03T03:10:37;99911.88;;;19.88;60.04
70133;BME280;57495;49.922;7.966;2022-08-03T03:12:40;99911.06;;;19.95;59.84
70133;BME280;57495;49.922;7.966;2022-08-03T03:14:43;99912.28;;;19.79;60.13
70133;BME280;57495;49.922;7.966;2022-08-03T03:16:45;99918.75;;;19.78;60.21
70133;BME280;57495;49.922;7.966;2022-08-03T03:18:48;99917.31;;;19.88;59.89
70133;BME280;57495;49.922;7.966;2022-08-03T03:20:51;99915.44;;;20.02;59.55
70133;BME280;57495;49.922;7.966;2022-08-03T03:22:53;99909.81;;;20.11;59.14
70133;BME280;57495;49.922;7.966;2022-08-03T03:24:57;99911.91;;;20.08;59.23
70133;BME280;57495;49.922;7.966;2022-08-03T03:26:59;99913.16;;;20.06;59.31
70133;BME280;57495;49.922;7.966;2022-08-03T03:29:01;99919.84;;;20.10;59.27
70133;BME280;57495;49.922;7.966;2022-08-03T03:31:03;99918.16;;;20.09;59.21
70133;BME280;57495;49.922;7.966;2022-08-03T03:33:05;99923.16;;;19.99;60.09
70133;BME280;57495;49.922;7.966;2022-08-03T03:35:08;99919.81;;;19.90;60.22
70133;BME280;57495;49.922;7.966;2022-08-03T03:37:10;99920.44;;;19.85;60.39
70133;BME280;57495;49.922;7.966;2022-08-03T03:39:12;99918.75;;;19.78;60.48
70133;BME280;57495;49.922;7.966;2022-08-03T03:41:15;99918.47;;;19.59;60.94
70133;BME280;57495;49.922;7.966;2022-08-03T03:43:16;99916.56;;;19.60;60.95
70133;BME280;57495;49.922;7.966;2022-08-03T03:45:19;99920.91;;;19.41;61.51
70133;BME280;57495;49.922;7.966;2022-08-03T03:47:22;99925.50;;;19.40;61.46
70133;BME280;57495;49.922;7.966;2022-08-03T03:49:23;99920.13;;;19.54;61.32
70133;BME280;57495;49.922;7.966;2022-08-03T03:51:25;99930.97;;;19.54;61.15
70133;BME280;57495;49.922;7.966;2022-08-03T03:53:26;99928.38;;;19.25;62.04
70133;BME280;57495;49.922;7.966;2022-08-03T03:55:28;99926.72;;;19.31;62.05
70133;BME280;57495;49.922;7.966;2022-08-03T03:57:31;99926.03;;;19.16;62.78
70133;BME280;57495;49.922;7.966;2022-08-03T03:59:32;99932.47;;;18.51;65.01
70133;BME280;57495;49.922;7.966;2022-08-03T04:01:33;99929.84;;;18.93;63.84
70133;BME280;57495;49.922;7.966;2022-08-03T04:03:35;99921.63;;;19.15;62.71
70133;BME280;57495;49.922;7.966;2022-08-03T04:05:36;99928.75;;;19.22;62.16
70133;BME280;57495;49.922;7.966;2022-08-03T04:07:58;99930.88;;;19.27;62.16
70133;BME280;57495;49.922;7.966;2022-08-03T04:10:20;99931.72;;;19.27;61.94
70133;BME280;57495;49.922;7.966;2022-08-03T04:12:40;99924.59;;;19.26;61.87
70133;BME280;57495;49.922;7.966;2022-08-03T04:14:45;99929.38;;;19.18;62.12
70133;BME280;57495;49.922;7.966;2022-08-03T04:16:51;99923.34;;;19.22;62.11
70133;BME280;57495;49.922;7.966;2022-08-03T04:18:58;99926.28;;;19.27;62.14
70133;BME280;57495;49.922;7.966;2022-08-03T04:21:02;99920.00;;;19.20;62.25
70133;BME280;57495;49.922;7.966;2022-08-03T04:23:05;99920.44;;;19.24;62.28
70133;BME280;57495;49.922;7.966;2022-08-03T04:25:09;99917.53;;;19.32;61.97
70133;BME280;57495;49.922;7.966;2022-08-03T04:27:20;99920.84;;;19.27;61.94
70133;BME280;57495;49.922;7.966;2022-08-03T04:29:25;99924.16;;;19.23;62.36
70133;BME280;57495;49.922;7.966;2022-08-03T04:31:27;99918.78;;;19.29;62.06
70133;BME280;57495;49.922;7.966;2022-08-03T04:33:31;99920.25;;;19.32;62.11
70133;BME280;57495;49.922;7.966;2022-08-03T04:35:34;99922.94;;;19.32;61.93
70133;BME280;57495;49.922;7.966;2022-08-03T04:37:38;99930.81;;;18.79;64.34
70133;BME280;57495;49.922;7.966;2022-08-03T04:39:41;99937.78;;;18.88;64.04
70133;BME280;57495;49.922;7.966;2022-08-03T04:41:45;99938.41;;;18.90;64.13
70133;BME280;57495;49.922;7.966;2022-08-03T04:43:50;99936.59;;;19.04;63.74
70133;BME280;57495;49.922;7.966;2022-08-03T04:45:55;99930.34;;;19.10;63.70
70133;BME280;57495;49.922;7.966;2022-08-03T04:47:58;99938.78;;;19.22;63.42
70133;BME280;57495;49.922;7.966;2022-08-03T04:50:00;99932.53;;;19.28;63.36
70133;BME280;57495;49.922;7.966;2022-08-03T04:52:03;99934.63;;;19.26;63.54
70133;BME280;57495;49.922;7.966;2022-08-03T04:54:04;99942.16;;;19.30;63.48
70133;BME280;57495;49.922;7.966;2022-08-03T04:56:07;99943.81;;;19.25;63.70
70133;BME280;57495;49.922;7.966;2022-08-03T04:58:08;99948.81;;;19.28;63.57
70133;BME280;57495;49.922;7.966;2022-08-03T05:00:11;99944.66;;;19.32;63.24
70133;BME280;57495;49.922;7.966;2022-08-03T05:02:14;99940.94;;;19.40;63.03
70133;BME280;57495;49.922;7.966;2022-08-03T05:04:15;99950.34;;;19.50;62.84
70133;BME280;57495;49.922;7.966;2022-08-03T05:06:17;99955.56;;;19.45;63.25
70133;BME280;57495;49.922;7.966;2022-08-03T05:08:19;99949.72;;;19.48;63.25
70133;BME280;57495;49.922;7.966;2022-08-03T05:10:20;99954.97;;;19.08;64.10
70133;BME280;57495;49.922;7.966;2022-08-03T05:12:21;99956.25;;;19.12;64.16
70133;BME280;57495;49.922;7.966;2022-08-03T05:14:23;99961.41;;;19.42;63.64
70133;BME280;57495;49.922;7.966;2022-08-03T05:16:25;99956.16;;;19.34;64.20
70133;BME280;57495;49.922;7.966;2022-08-03T05:18:27;99953.84;;;19.38;63.96
70133;BME280;57495;49.922;7.966;2022-08-03T05:20:29;99960.00;;;19.60;63.10
70133;BME280;57495;49.922;7.966;2022-08-03T05:22:30;99963.44;;;19.75;62.81
70133;BME280;57495;49.922;7.966;2022-08-03T05:24:32;99961.97;;;19.79;62.82
70133;BME280;57495;49.922;7.966;2022-08-03T05:26:33;99964.97;;;19.49;63.74
70133;BME280;57495;49.922;7.966;2022-08-03T05:28:34;99966.72;;;19.22;65.16
70133;BME280;57495;49.922;7.966;2022-08-03T05:30:36;99972.91;;;19.09;65.30
70133;BME280;57495;49.922;7.966;2022-08-03T05:32:37;99966.59;;;19.37;64.26
70133;BME280;57495;49.922;7.966;2022-08-03T05:34:40;99974.66;;;19.72;63.98
70133;BME280;57495;49.922;7.966;2022-08-03T05:36:42;99975.53;;;19.79;63.29
70133;BME280;57495;49.922;7.966;2022-08-03T05:38:43;99974.91;;;19.77;63.21
70133;BME280;57495;49.922;7.966;2022-08-03T05:40:44;99963.44;;;19.82;63.21
70133;BME280;57495;49.922;7.966;2022-08-03T05:42:46;99970.53;;;19.83;62.52
70133;BME280;57495;49.922;7.966;2022-08-03T05:44:49;99966.19;;;19.95;62.58
70133;BME280;57495;49.922;7.966;2022-08-03T05:46:50;99971.19;;;19.98;61.97
70133;BME280;57495;49.922;7.966;2022-08-03T05:48:51;99964.53;;;20.21;61.54
70133;BME280;57495;49.922;7.966;2022-08-03T05:50:54;99966.66;;;20.25;61.52
70133;BME280;57495;49.922;7.966;2022-08-03T05:52:56;99966.66;;;20.32;60.69
70133;BME280;57495;49.922;7.966;2022-08-03T05:54:57;99965.00;;;20.38;60.41
70133;BME280;57495;49.922;7.966;2022-08-03T05:56:59;99967.09;;;20.49;59.94
70133;BME280;57495;49.922;7.966;2022-08-03T05:59:00;99965.41;;;20.35;60.28
70133;BME280;57495;49.922;7.966;2022-08-03T06:01:02;99963.09;;;20.38;61.65
70133;BME280;57495;49.922;7.966;2022-08-03T06:03:03;99968.13;;;20.61;60.37
70133;BME280;57495;49.922;7.966;2022-08-03T06:05:06;99968.75;;;20.63;60.25
70133;BME280;57495;49.922;7.966;2022-08-03T06:07:09;99967.06;;;20.36;61.19
70133;BME280;57495;49.922;7.966;2022-08-03T06:09:10;99965.81;;;20.45;60.77
70133;BME280;57495;49.922;7.966;2022-08-03T06:11:12;99970.88;;;20.75;60.22
70133;BME280;57495;49.922;7.966;2022-08-03T06:13:13;99965.81;;;20.92;60.10
70133;BME280;57495;49.922;7.966;2022-08-03T06:15:15;99962.03;;;20.93;60.25
70133;BME280;57495;49.922;7.966;2022-08-03T06:17:17;99961.22;;;20.92;58.83
70133;BME280;57495;49.922;7.966;2022-08-03T06:19:19;99968.06;;;21.15;58.49
70133;BME280;57495;49.922;7.966;2022-08-03T06:21:20;99964.09;;;21.17;58.52
70133;BME280;57495;49.922;7.966;2022-08-03T06:23:23;99966.53;;;21.46;57.31
70133;BME280;57495;49.922;7.966;2022-08-03T06:25:25;99967.50;;;21.58;58.27
70133;BME280;57495;49.922;7.966;2022-08-03T06:27:26;99968.50;;;21.70;57.69
70133;BME280;57495;49.922;7.966;2022-08-03T06:29:27;99956.97;;;21.75;57.36
70133;BME280;57495;49.922;7.966;2022-08-03T06:31:29;99961.78;;;21.73;56.61
70133;BME280;57495;49.922;7.966;2022-08-03T06:33:30;99967.97;;;21.93;55.63
70133;BME280;57495;49.922;7.966;2022-08-03T06:35:32;99971.25;;;22.02;55.25
70133;BME280;57495;49.922;7.966;2022-08-03T06:37:41;99968.69;;;22.14;56.52
70133;BME280;57495;49.922;7.966;2022-08-03T06:39:44;99968.72;;;22.39;54.94
70133;BME280;57495;49.922;7.966;2022-08-03T06:41:45;99967.84;;;22.45;55.32
70133;BME280;57495;49.922;7.966;2022-08-03T06:43:47;99968.50;;;22.66;53.99
70133;BME280;57495;49.922;7.966;2022-08-03T06:45:48;99958.41;;;22.91;53.55
70133;BME280;57495;49.922;7.966;2022-08-03T06:47:59;99966.66;;;23.03;53.65
70133;BME280;57495;49.922;7.966;2022-08-03T06:50:01;99963.47;;;22.88;54.18
70133;BME280;57495;49.922;7.966;2022-08-03T06:52:02;99962.56;;;23.19;52.60
70133;BME280;57495;49.922;7.966;2022-08-03T06:54:04;99951.75;;;23.43;52.64
70133;BME280;57495;49.922;7.966;2022-08-03T06:56:08;99957.81;;;23.26;52.47
70133;BME280;57495;49.922;7.966;2022-08-03T06:58:10;99971.91;;;23.60;52.23
70133;BME280;57495;49.922;7.966;2022-08-03T07:00:12;99966.34;;;23.85;51.77
70133;BME280;57495;49.922;7.966;2022-08-03T07:02:14;99962.13;;;24.01;50.94
70133;BME280;57495;49.922;7.966;2022-08-03T07:04:15;99967.69;;;24.25;49.94
70133;BME280;57495;49.922;7.966;2022-08-03T07:06:16;99974.47;;;24.34;50.22
70133;BME280;57495;49.922;7.966;2022-08-03T07:08:18;99964.78;;;24.62;49.04
70133;BME280;57495;49.922;7.966;2022-08-03T07:10:19;99958.94;;;24.70;49.59
70133;BME280;57495;49.922;7.966;2022-08-03T07:12:22;99963.25;;;24.89;48.79
70133;BME280;57495;49.922;7.966;2022-08-03T07:14:23;99953.94;;;24.91;48.10
70133;BME280;57495;49.922;7.966;2022-08-03T07:16:25;99962.88;;;24.62;48.52
70133;BME280;57495;49.922;7.966;2022-08-03T07:18:26;99959.56;;;24.60;48.93
70133;BME280;57495;49.922;7.966;2022-08-03T07:20:28;99972.88;;;24.80;48.27
70133;BME280;57495;49.922;7.966;2022-08-03T07:22:29;99966.22;;;25.23;47.93
70133;BME280;57495;49.922;7.966;2022-08-03T07:24:31;99971.34;;;24.84;49.01
70133;BME280;57495;49.922;7.966;2022-08-03T07:26:32;99967.84;;;25.24;47.66
70133;BME280;57495;49.922;7.966;2022-08-03T07:28:35;99978.41;;;25.56;47.83
70133;BME280;57495;49.922;7.966;2022-08-03T07:30:36;99980.78;;;25.81;47.05
70133;BME280;57495;49.922;7.966;2022-08-03T07:32:38;99974.97;;;25.78;46.97
70133;BME280;57495;49.922;7.966;2022-08-03T07:34:40;99980.75;;;26.22;46.21
70133;BME280;57495;49.922;7.966;2022-08-03T07:36:41;99974.78;;;26.25;45.85
70133;BME280;57495;49.922;7.966;2022-08-03T07:38:42;99979.13;;;26.55;45.55
70133;BME280;57495;49.922;7.966;2022-08-03T07:40:44;99972.22;;;26.52;44.66
70133;BME280;57495;49.922;7.966;2022-08-03T07:42:45;99979.81;;;26.62;44.67
70133;BME280;57495;49.922;7.966;2022-08-03T07:44:48;99967.34;;;26.71;45.05
70133;BME280;57495;49.922;7.966;2022-08-03T07:46:49;99968.78;;;26.96;44.73
70133;BME280;57495;49.922;7.966;2022-08-03T07:48:51;99965.41;;;27.28;43.50
70133;BME280;57495;49.922;7.966;2022-08-03T07:50:52;99970.34;;;27.48;43.65
70133;BME280;57495;49.922;7.966;2022-08-03T07:52:54;99971.94;;;27.66;42.25
70133;BME280;57495;49.922;7.966;2022-08-03T07:54:57;99966.84;;;27.80;42.80
70133;BME280;57495;49.922;7.966;2022-08-03T07:56:58;99971.44;;;28.23;42.73
70133;BME280;57495;49.922;7.966;2022-08-03T07:58:59;99969.94;;;28.38;41.51
70133;BME280;57495;49.922;7.966;2022-08-03T08:01:03;99965.19;;;28.60;41.74
70133;BME280;57495;49.922;7.966;2022-08-03T08:03:04;99967.25;;;28.48;41.55
70133;BME280;57495;49.922;7.966;2022-08-03T08:05:06;99955.38;;;28.75;41.89
70133;BME280;57495;49.922;7.966;2022-08-03T08:07:09;99956.84;;;28.87;40.79
70133;BME280;57495;49.922;7.966;2022-08-03T08:09:11;99955.09;;;29.19;40.01
70133;BME280;57495;49.922;7.966;2022-08-03T08:11:12;99952.81;;;29.10;40.51
70133;BME280;57495;49.922;7.966;2022-08-03T08:13:14;99950.19;;;28.83;40.80
70133;BME280;57495;49.922;7.966;2022-08-03T08:15:15;99950.47;;;28.82;39.74
70133;BME280;57495;49.922;7.966;2022-08-03T08:17:18;99949.31;;;28.78;39.84
70133;BME280;57495;49.922;7.966;2022-08-03T08:19:20;99949.00;;;28.69;40.61
70133;BME280;57495;49.922;7.966;2022-08-03T08:21:21;99945.75;;;29.20;40.70
70133;BME280;57495;49.922;7.966;2022-08-03T08:23:23;99943.03;;;29.35;40.32
70133;BME280;57495;49.922;7.966;2022-08-03T08:25:24;99950.00;;;29.43;39.44
70133;BME280;57495;49.922;7.966;2022-08-03T08:27:26;99945.81;;;29.40;39.38
70133;BME280;57495;49.922;7.966;2022-08-03T08:29:27;99956.03;;;29.50;38.72
70133;BME280;57495;49.922;7.966;2022-08-03T08:31:29;99953.47;;;30.01;37.49
70133;BME280;57495;49.922;7.966;2022-08-03T08:33:32;99942.16;;;30.03;36.85
70133;BME280;57495;49.922;7.966;2022-08-03T08:35:34;99945.16;;;29.81;36.53
70133;BME280;57495;49.922;7.966;2022-08-03T08:37:36;99947.13;;;30.21;37.00
70133;BME280;57495;49.922;7.966;2022-08-03T08:39:37;99945.19;;;30.63;34.52
70133;BME280;57495;49.922;7.966;2022-08-03T08:41:39;99934.41;;;29.84;33.84
70133;BME280;57495;49.922;7.966;2022-08-03T08:43:41;99938.31;;;30.19;34.94
70133;BME280;57495;49.922;7.966;2022-08-03T08:45:43;99941.63;;;30.62;33.43
70133;BME280;57495;49.922;7.966;2022-08-03T08:47:46;99939.66;;;30.83;31.86
70133;BME280;57495;49.922;7.966;2022-08-03T08:49:51;99948.53;;;30.65;33.21
70133;BME280;57495;49.922;7.966;2022-08-03T08:51:54;99936.91;;;30.78;33.37
70133;BME280;57495;49.922;7.966;2022-08-03T08:54:00;99934.38;;;30.87;34.01
70133;BME280;57495;49.922;7.966;2022-08-03T08:56:03;99932.78;;;30.55;32.70
70133;BME280;57495;49.922;7.966;2022-08-03T08:58:07;99936.66;;;30.59;33.15
70133;BME280;57495;49.922;7.966;2022-08-03T09:00:11;99932.81;;;30.40;33.74
70133;BME280;57495;49.922;7.966;2022-08-03T09:02:13;99929.16;;;30.86;33.68
70133;BME280;57495;49.922;7.966;2022-08-03T09:04:15;99931.13;;;30.75;33.91
70133;BME280;57495;49.922;7.966;2022-08-03T09:06:18;99928.03;;;30.87;33.09
70133;BME280;57495;49.922;7.966;2022-08-03T09:08:20;99932.19;;;30.99;32.11
70133;BME280;57495;49.922;7.966;2022-08-03T09:10:22;99925.53;;;31.06;31.76
70133;BME280;57495;49.922;7.966;2022-08-03T09:12:23;99930.91;;;31.47;32.06
70133;BME280;57495;49.922;7.966;2022-08-03T09:14:25;99930.75;;;31.77;31.41
70133;BME280;57495;49.922;7.966;2022-08-03T09:16:26;99934.34;;;31.13;31.09
70133;BME280;57495;49.922;7.966;2022-08-03T09:18:28;99930.38;;;31.39;32.28
70133;BME280;57495;49.922;7.966;2022-08-03T09:20:31;99932.53;;;32.37;30.58
70133;BME280;57495;49.922;7.966;2022-08-03T09:22:35;99930.03;;;32.70;30.25
70133;BME280;57495;49.922;7.966;2022-08-03T09:24:54;99929.66;;;32.18;27.93
70133;BME280;57495;49.922;7.966;2022-08-03T09:26:56;99922.56;;;32.07;28.22
70133;BME280;57495;49.922;7.966;2022-08-03T09:29:01;99920.94;;;31.95;29.53
70133;BME280;57495;49.922;7.966;2022-08-03T09:31:02;99929.34;;;31.25;27.42
70133;BME280;57495;49.922;7.966;2022-08-03T09:33:05;99927.00;;;32.03;29.33
70133;BME280;57495;49.922;7.966;2022-08-03T09:35:07;99921.94;;;33.03;29.06
70133;BME280;57495;49.922;7.966;2022-08-03T09:37:12;99916.88;;;33.34;27.01
70133;BME280;57495;49.922;7.966;2022-08-03T09:39:17;99933.50;;;32.86;26.68
70133;BME280;57495;49.922;7.966;2022-08-03T09:41:19;99930.31;;;31.60;27.11
70133;BME280;57495;49.922;7.966;2022-08-03T09:43:20;99926.06;;;32.17;27.75
70133;BME280;57495;49.922;7.966;2022-08-03T09:45:25;99920.06;;;32.40;27.42
70133;BME280;57495;49.922;7.966;2022-08-03T09:47:28;99918.06;;;32.45;27.71
70133;BME280;57495;49.922;7.966;2022-08-03T09:49:30;99923.22;;;32.86;28.20
70133;BME280;57495;49.922;7.966;2022-08-03T09:51:31;99914.72;;;33.26;27.29
70133;BME280;57495;49.922;7.966;2022-08-03T09:53:41;99912.94;;;31.49;27.69
70133;BME280;57495;49.922;7.966;2022-08-03T09:55:51;99913.28;;;32.22;28.16
70133;BME280;57495;49.922;7.966;2022-08-03T09:58:03;99916.88;;;32.22;27.35
70133;BME280;57495;49.922;7.966;2022-08-03T10:00:07;99911.19;;;32.72;26.95
70133;BME280;57495;49.922;7.966;2022-08-03T10:02:20;99909.41;;;33.29;26.17
70133;BME280;57495;49.922;7.966;2022-08-03T10:04:23;99907.91;;;32.01;26.12
70133;BME280;57495;49.922;7.966;2022-08-03T10:06:24;99903.03;;;32.22;26.72
70133;BME280;57495;49.922;7.966;2022-08-03T10:08:26;99901.38;;;33.04;25.03
70133;BME280;57495;49.922;7.966;2022-08-03T10:10:40;99900.97;;;33.40;25.51
70133;BME280;57495;49.922;7.966;2022-08-03T10:12:44;99897.28;;;33.01;26.37
70133;BME280;57495;49.922;7.966;2022-08-03T10:14:47;99898.47;;;32.71;26.34
70133;BME280;57495;49.922;7.966;2022-08-03T10:16:49;99893.44;;;32.73;26.65
70133;BME280;57495;49.922;7.966;2022-08-03T10:18:50;99889.41;;;32.89;25.98
70133;BME280;57495;49.922;7.966;2022-08-03T10:21:03;99889.50;;;33.27;24.85
70133;BME280;57495;49.922;7.966;2022-08-03T10:23:08;99874.91;;;33.60;25.92
70133;BME280;57495;49.922;7.966;2022-08-03T10:25:11;99880.66;;;34.01;24.93
70133;BME280;57495;49.922;7.966;2022-08-03T10:27:14;99888.72;;;33.65;25.76
70133;BME280;57495;49.922;7.966;2022-08-03T10:29:21;99880.50;;;32.39;25.03
70133;BME280;57495;49.922;7.966;2022-08-03T10:31:25;99874.06;;;33.97;24.69
70133;BME280;57495;49.922;7.966;2022-08-03T10:33:34;99876.06;;;34.11;24.08
70133;BME280;57495;49.922;7.966;2022-08-03T10:35:38;99871.97;;;34.55;23.62
70133;BME280;57495;49.922;7.966;2022-08-03T10:37:43;99874.75;;;34.41;24.68
70133;BME280;57495;49.922;7.966;2022-08-03T10:39:45;99872.03;;;34.82;24.92
70133;BME280;57495;49.922;7.966;2022-08-03T10:41:56;99861.78;;;35.05;24.06
70133;BME280;57495;49.922;7.966;2022-08-03T10:44:02;99863.66;;;33.51;25.05
70133;BME280;57495;49.922;7.966;2022-08-03T10:46:07;99860.28;;;33.11;24.39
70133;BME280;57495;49.922;7.966;2022-08-03T10:48:09;99858.41;;;33.49;25.14
70133;BME280;57495;49.922;7.966;2022-08-03T10:50:11;99856.75;;;34.52;24.03
70133;BME280;57495;49.922;7.966;2022-08-03T10:52:12;99854.34;;;34.32;24.50
70133;BME280;57495;49.922;7.966;2022-08-03T10:54:36;99847.50;;;34.84;23.48